Time;durP1;ratioP1;P1;durP2;ratioP2;P2;SDS_P1;SDS_P2;PMS_P1;PMS_P2;Temp;Humidity;BMP_temperature;BMP_pressure;BME280_temperature;BME280_humidity;BME280_pressure;Samples;Min_cycle;Max_cycle;Signal;HPM_P1;HPM_P2
2022/08/07 00:01:22;;;;;;;6.45;4.13;;;21.60;82.10;;;;;;5034260;28;20500;-17
2022/08/07 00:03:48;;;;;;;7.13;4.40;;;21.80;82.40;;;;;;5034443;28;20045;-14
2022/08/07 00:06:14;;;;;;;6.85;4.10;;;21.80;82.40;;;;;;5034275;28;20049;-19
2022/08/07 00:08:41;;;;;;;4.68;3.40;;;21.80;82.00;;;;;;5034727;28;20021;-15
2022/08/07 00:11:07;;;;;;;6.15;3.42;;;21.80;81.70;;;;;;5034038;28;20025;-15
2022/08/07 00:13:36;;;;;;;4.85;3.47;;;21.90;81.40;;;;;;5034308;28;20104;-16
2022/08/07 00:16:04;;;;;;;4.82;3.00;;;21.90;81.10;;;;;;5034503;28;20017;-16
2022/08/07 00:18:31;;;;;;;4.47;3.08;;;21.90;80.90;;;;;;5015991;28;20496;-14
2022/08/07 00:21:00;;;;;;;3.17;2.88;;;21.90;80.50;;;;;;5033718;28;20033;-13
2022/08/07 00:23:26;;;;;;;3.92;2.90;;;22.00;80.30;;;;;;5033837;28;20501;-15
2022/08/07 00:25:52;;;;;;;4.40;3.10;;;22.00;80.10;;;;;;5033812;28;20036;-15
2022/08/07 00:28:19;;;;;;;3.22;2.88;;;21.90;80.00;;;;;;5033924;28;20016;-15
2022/08/07 00:30:46;;;;;;;5.28;2.88;;;21.90;79.80;;;;;;5033964;28;20385;-15
2022/08/07 00:33:12;;;;;;;3.97;2.97;;;21.90;79.60;;;;;;5033812;28;20025;-15
2022/08/07 00:35:38;;;;;;;2.80;2.55;;;21.90;79.30;;;;;;5033180;28;20037;-15
2022/08/07 00:38:05;;;;;;;4.70;2.75;;;21.90;79.10;;;;;;5015864;28;20472;-14
2022/08/07 00:40:31;;;;;;;3.38;2.60;;;21.90;78.60;;;;;;5033416;28;20079;-14
2022/08/07 00:42:57;;;;;;;2.78;2.55;;;21.90;78.20;;;;;;5033811;28;20029;-16
2022/08/07 00:45:23;;;;;;;4.53;2.90;;;21.90;77.90;;;;;;5033479;28;20484;-14
2022/08/07 00:47:50;;;;;;;2.90;2.53;;;22.00;77.40;;;;;;5033722;28;20056;-15
2022/08/07 00:50:16;;;;;;;5.30;2.80;;;22.00;77.30;;;;;;5033094;28;20116;-16
2022/08/07 00:52:43;;;;;;;3.08;2.42;;;22.10;77.00;;;;;;5033410;28;20026;-15
2022/08/07 00:55:09;;;;;;;3.55;2.60;;;22.20;76.80;;;;;;5033247;28;20026;-16
2022/08/07 00:57:35;;;;;;;3.85;3.00;;;22.10;76.80;;;;;;5015572;28;20440;-15
2022/08/07 01:00:06;;;;;;;3.17;2.50;;;22.10;76.70;;;;;;5033488;28;20028;-15
2022/08/07 01:02:32;;;;;;;4.68;2.95;;;22.10;76.70;;;;;;5033368;28;20021;-15
2022/08/07 01:04:58;;;;;;;4.05;2.80;;;22.20;76.40;;;;;;5033218;28;20076;-15
2022/08/07 01:07:26;;;;;;;4.68;3.00;;;22.20;76.20;;;;;;5033760;28;20424;-15
2022/08/07 01:09:52;;;;;;;3.80;2.90;;;22.20;76.20;;;;;;5033454;28;20109;-12
2022/08/07 01:12:18;;;;;;;6.03;2.90;;;22.30;76.10;;;;;;5032929;28;20112;-13
2022/08/07 01:14:45;;;;;;;3.35;2.85;;;22.40;76.00;;;;;;5033615;28;20068;-13
2022/08/07 01:17:12;;;;;;;3.05;2.67;;;22.40;76.10;;;;;;5033015;28;20032;-15
2022/08/07 01:19:38;;;;;;;3.83;2.85;;;22.40;76.10;;;;;;5032921;28;20032;-15
2022/08/07 01:22:05;;;;;;;4.00;3.13;;;22.30;76.20;;;;;;5032976;28;20493;-16
2022/08/07 01:24:31;;;;;;;4.00;3.00;;;22.40;76.80;;;;;;5033383;28;20112;-16
2022/08/07 01:26:59;;;;;;;6.10;2.80;;;22.30;76.90;;;;;;5015268;28;20025;-15
2022/08/07 01:29:27;;;;;;;4.00;2.70;;;22.20;77.00;;;;;;5033192;28;20048;-14
2022/08/07 01:31:54;;;;;;;3.58;3.10;;;22.20;77.00;;;;;;5032983;28;20030;-16
2022/08/07 01:34:20;;;;;;;3.30;2.78;;;22.10;77.00;;;;;;5032701;28;20428;-16
2022/08/07 01:36:48;;;;;;;3.58;2.80;;;22.10;76.90;;;;;;5033001;28;20036;-15
2022/08/07 01:39:15;;;;;;;3.88;2.90;;;22.10;76.80;;;;;;5032845;28;20025;-15
2022/08/07 01:41:44;;;;;;;3.50;2.88;;;22.10;76.50;;;;;;5033216;28;20099;-14
2022/08/07 01:44:11;;;;;;;4.85;3.10;;;22.10;76.30;;;;;;5033058;28;20385;-16
2022/08/07 01:46:40;;;;;;;4.13;3.20;;;22.10;76.30;;;;;;5035493;28;20026;-16
2022/08/07 01:49:06;;;;;;;4.93;3.05;;;22.10;76.20;;;;;;5036601;28;20376;-16
2022/08/07 01:51:34;;;;;;;3.30;3.00;;;22.10;76.20;;;;;;5036996;28;20017;-15
2022/08/07 01:54:06;;;;;;;4.15;2.85;;;22.10;76.10;;;;;;5036872;28;20025;-14
2022/08/07 01:56:47;;;;;;;4.85;3.10;;;22.20;76.30;;;;;;5036490;28;20018;-16
2022/08/07 01:59:22;;;;;;;3.65;2.90;;;22.10;76.80;;;;;;5036809;28;20055;-16
2022/08/07 02:02:00;;;;;;;4.50;3.45;;;22.10;76.90;;;;;;5036573;28;20481;-14
2022/08/07 02:04:43;;;;;;;4.72;3.30;;;21.90;77.10;;;;;;5036100;28;20132;-14
2022/08/07 02:07:12;;;;;;;5.13;3.28;;;21.90;78.00;;;;;;5036771;28;20053;-17
2022/08/07 02:09:41;;;;;;;4.68;3.20;;;21.70;78.10;;;;;;5036310;28;20026;-15
2022/08/07 02:12:15;;;;;;;4.25;3.67;;;21.70;78.40;;;;;;5036292;28;20025;-17
2022/08/07 02:14:51;;;;;;;5.03;3.50;;;21.60;78.50;;;;;;5036317;28;20496;-15
2022/08/07 02:17:18;;;;;;;8.10;3.75;;;21.50;78.90;;;;;;5036482;28;20033;-16
2022/08/07 02:19:46;;;;;;;7.43;4.25;;;21.50;79.00;;;;;;5018467;28;20052;-17
2022/08/07 02:22:14;;;;;;;7.55;4.13;;;21.40;79.70;;;;;;5036206;28;20453;-17
2022/08/07 02:24:43;;;;;;;5.22;4.15;;;21.40;79.90;;;;;;5036364;28;20034;-15
2022/08/07 02:27:12;;;;;;;5.50;4.00;;;21.30;80.50;;;;;;5036028;28;20024;-15
2022/08/07 02:29:41;;;;;;;7.88;4.88;;;21.20;80.70;;;;;;5036306;28;20029;-16
2022/08/07 02:32:09;;;;;;;8.27;4.50;;;21.10;81.60;;;;;;5036285;28;20025;-17
2022/08/07 02:34:38;;;;;;;6.38;4.40;;;21.00;82.20;;;;;;5035755;28;20029;-15
2022/08/07 02:37:07;;;;;;;5.50;4.05;;;20.90;82.40;;;;;;5036129;28;20033;-15
2022/08/07 02:39:37;;;;;;;6.03;4.40;;;20.80;82.70;;;;;;5036075;28;20029;-15
2022/08/07 02:42:05;;;;;;;8.07;4.32;;;20.70;83.30;;;;;;5036724;28;20101;-15
2022/08/07 02:44:31;;;;;;;6.95;4.32;;;20.60;83.40;;;;;;5035529;28;20393;-17
2022/08/07 02:47:00;;;;;;;5.97;4.15;;;20.50;83.50;;;;;;5035762;28;20476;-17
2022/08/07 02:49:28;;;;;;;8.23;5.00;;;20.50;83.70;;;;;;5035850;28;20025;-15
2022/08/07 02:51:57;;;;;;;6.55;4.93;;;20.40;83.90;;;;;;5017900;28;20029;-15
2022/08/07 02:54:27;;;;;;;8.10;5.15;;;20.40;84.40;;;;;;5035443;28;20025;-16
2022/08/07 02:56:59;;;;;;;8.63;5.32;;;20.30;84.60;;;;;;5034390;28;20556;-16
2022/08/07 02:59:28;;;;;;;7.60;5.57;;;20.20;85.10;;;;;;5036125;28;20078;-15
2022/08/07 03:01:55;;;;;;;7.43;5.25;;;20.10;85.10;;;;;;5035426;28;20029;-15
2022/08/07 03:04:23;;;;;;;6.75;4.82;;;20.10;85.30;;;;;;5034827;28;20183;-17
2022/08/07 03:06:51;;;;;;;6.75;4.78;;;20.10;85.50;;;;;;5035254;28;20384;-15
2022/08/07 03:09:20;;;;;;;8.23;5.88;;;20.10;85.50;;;;;;5035573;28;20034;-15
2022/08/07 03:11:47;;;;;;;8.38;6.00;;;20.00;85.70;;;;;;5035451;28;20448;-14
2022/08/07 03:14:14;;;;;;;8.15;4.63;;;20.00;85.50;;;;;;5035309;28;20490;-14
2022/08/07 03:16:41;;;;;;;6.85;4.85;;;20.00;85.80;;;;;;5035013;28;20124;-14
2022/08/07 03:19:09;;;;;;;6.75;5.25;;;20.10;85.60;;;;;;5035005;28;20025;-16
2022/08/07 03:21:36;;;;;;;6.25;5.03;;;20.00;85.80;;;;;;5035064;28;20065;-16
2022/08/07 03:24:02;;;;;;;8.45;5.20;;;20.10;85.70;;;;;;5034993;28;20496;-15
2022/08/07 03:26:31;;;;;;;9.38;6.78;;;20.20;85.80;;;;;;5034644;28;20024;-14
2022/08/07 03:29:01;;;;;;;11.27;6.78;;;20.20;85.70;;;;;;5035159;28;20060;-16
2022/08/07 03:31:29;;;;;;;10.82;7.60;;;20.20;85.80;;;;;;5034928;28;20079;-14
2022/08/07 03:34:01;;;;;;;11.70;7.03;;;20.20;86.10;;;;;;5034786;28;20033;-16
2022/08/07 03:36:29;;;;;;;10.05;7.38;;;20.20;85.90;;;;;;5034498;28;20018;-15
2022/08/07 03:39:04;;;;;;;10.63;6.70;;;20.20;86.10;;;;;;5034680;28;20037;-14
2022/08/07 03:41:32;;;;;;;11.40;6.65;;;20.10;86.30;;;;;;5034616;28;20032;-15
2022/08/07 03:43:59;;;;;;;10.95;7.18;;;20.10;86.30;;;;;;5016937;28;20087;-14
2022/08/07 03:46:27;;;;;;;8.68;6.70;;;20.10;86.30;;;;;;5034400;28;20175;-16
2022/08/07 03:48:53;;;;;;;10.20;7.40;;;20.10;87.10;;;;;;5034852;28;20033;-14
2022/08/07 03:51:21;;;;;;;9.63;6.82;;;20.00;86.80;;;;;;5034344;28;20030;-16
2022/08/07 03:53:47;;;;;;;11.80;6.43;;;20.10;87.00;;;;;;5034438;28;20026;-16
2022/08/07 03:56:19;;;;;;;10.25;6.40;;;20.10;87.20;;;;;;5034348;28;20030;-15
2022/08/07 03:58:47;;;;;;;7.72;5.82;;;20.10;87.30;;;;;;5034333;28;20029;-15
2022/08/07 04:01:16;;;;;;;7.13;5.72;;;20.10;86.90;;;;;;5034250;28;20033;-16
2022/08/07 04:03:43;;;;;;;8.15;6.18;;;20.10;86.70;;;;;;5033981;28;20021;-14
2022/08/07 04:06:10;;;;;;;10.43;7.07;;;20.10;86.70;;;;;;5034219;28;20024;-15
2022/08/07 04:08:41;;;;;;;10.55;7.18;;;20.20;86.60;;;;;;5033716;28;20119;-16
2022/08/07 04:11:10;;;;;;;7.60;6.00;;;20.20;86.60;;;;;;5034081;28;20082;-15
2022/08/07 04:13:37;;;;;;;7.65;5.55;;;20.20;86.90;;;;;;5034295;28;20111;-16
2022/08/07 04:16:04;;;;;;;8.18;5.82;;;20.10;86.70;;;;;;5034177;28;20022;-14
2022/08/07 04:18:30;;;;;;;8.13;6.05;;;20.10;86.60;;;;;;5033830;28;20020;-15
2022/08/07 04:20:56;;;;;;;7.05;5.53;;;20.10;86.60;;;;;;5034131;28;20037;-15
2022/08/07 04:23:23;;;;;;;8.35;6.65;;;20.10;86.80;;;;;;5034087;28;20388;-16
2022/08/07 04:25:51;;;;;;;6.70;5.28;;;20.10;86.60;;;;;;5034187;28;20033;-14
2022/08/07 04:28:18;;;;;;;5.80;5.00;;;20.10;86.70;;;;;;5033882;28;20025;-15
2022/08/07 04:30:49;;;;;;;5.90;4.80;;;20.10;86.70;;;;;;5033673;28;20033;-14
2022/08/07 04:33:16;;;;;;;9.60;6.20;;;20.10;86.60;;;;;;5033742;28;20022;-16
2022/08/07 04:35:46;;;;;;;7.45;5.20;;;20.10;86.60;;;;;;5033599;28;20040;-16
2022/08/07 04:38:13;;;;;;;8.52;6.20;;;20.10;86.70;;;;;;5033694;28;20064;-14
2022/08/07 04:40:43;;;;;;;7.50;4.95;;;20.20;86.90;;;;;;5033572;28;20034;-14
2022/08/07 04:43:09;;;;;;;6.75;4.65;;;20.20;86.60;;;;;;5033865;28;20030;-15
2022/08/07 04:45:47;;;;;;;7.85;4.50;;;20.20;86.60;;;;;;5034114;28;20037;-15
2022/08/07 04:48:29;;;;;;;6.65;4.30;;;20.20;86.40;;;;;;5033756;28;20048;-15
2022/08/07 04:51:08;;;;;;;7.43;4.18;;;20.30;86.50;;;;;;5033650;28;20036;-14
2022/08/07 04:53:58;;;;;;;5.15;3.88;;;20.30;86.60;;;;;;5033760;28;20025;-14
2022/08/07 04:56:34;;;;;;;5.13;3.58;;;20.30;86.40;;;;;;5033526;28;20049;-17
2022/08/07 04:59:16;;;;;;;6.60;3.67;;;20.30;86.20;;;;;;5033643;28;20018;-15
2022/08/07 05:02:09;;;;;;;4.53;3.38;;;20.30;86.30;;;;;;5033471;28;20473;-14
2022/08/07 05:04:41;;;;;;;5.80;4.00;;;20.30;86.50;;;;;;5032736;28;20053;-14
2022/08/07 05:07:18;;;;;;;8.38;4.03;;;20.30;86.40;;;;;;5033696;28;20061;-14
2022/08/07 05:10:03;;;;;;;9.05;4.00;;;20.30;86.30;;;;;;5033215;28;20033;-15
2022/08/07 05:12:37;;;;;;;4.82;4.18;;;20.40;86.10;;;;;;5032923;28;20033;-16
2022/08/07 05:15:15;;;;;;;5.63;3.75;;;20.30;85.90;;;;;;5033463;28;20052;-15
2022/08/07 05:17:52;;;;;;;4.88;3.97;;;20.40;85.90;;;;;;5033413;28;20027;-16
2022/08/07 05:20:25;;;;;;;7.47;4.35;;;20.40;86.00;;;;;;5032629;28;20028;-14
2022/08/07 05:22:56;;;;;;;13.90;5.45;;;20.50;86.00;;;;;;5033441;28;20042;-16
2022/08/07 05:25:24;;;;;;;5.45;4.25;;;20.50;86.00;;;;;;5032949;28;20026;-13
2022/08/07 05:27:52;;;;;;;6.63;4.10;;;20.50;86.20;;;;;;5033209;28;20017;-15
2022/08/07 05:30:19;;;;;;;7.05;4.10;;;20.60;85.90;;;;;;5033338;28;20026;-15
2022/08/07 05:32:47;;;;;;;6.07;4.18;;;20.60;85.90;;;;;;5033253;28;20108;-14
2022/08/07 05:35:14;;;;;;;6.55;3.70;;;20.60;86.20;;;;;;5032807;28;20037;-14
2022/08/07 05:37:42;;;;;;;5.45;3.60;;;20.60;85.90;;;;;;5033197;28;20018;-14
2022/08/07 05:40:09;;;;;;;4.53;3.90;;;20.70;85.80;;;;;;5032813;28;20107;-14
2022/08/07 05:42:37;;;;;;;6.22;3.92;;;20.80;86.00;;;;;;5032785;28;20025;-15
2022/08/07 05:45:05;;;;;;;4.18;3.33;;;20.90;86.20;;;;;;5033097;28;20033;-16
2022/08/07 05:47:32;;;;;;;4.50;3.50;;;20.90;85.70;;;;;;5032661;28;20481;-13
2022/08/07 05:50:01;;;;;;;4.97;3.83;;;20.90;85.60;;;;;;5032818;28;20033;-15
2022/08/07 05:52:26;;;;;;;6.35;4.10;;;21.00;85.50;;;;;;5032529;28;20053;-16
2022/08/07 05:54:52;;;;;;;4.82;3.72;;;21.10;85.10;;;;;;5032990;28;20053;-15
2022/08/07 05:57:20;;;;;;;9.35;4.22;;;21.20;85.90;;;;;;5033030;28;20400;-14
2022/08/07 05:59:48;;;;;;;6.05;4.47;;;21.40;86.00;;;;;;5033098;28;20501;-14
2022/08/07 06:02:18;;;;;;;5.80;3.90;;;21.50;86.30;;;;;;5032478;28;20033;-20
2022/08/07 06:04:51;;;;;;;6.15;4.25;;;21.70;86.00;;;;;;5032456;28;20041;-16
2022/08/07 06:07:18;;;;;;;5.18;3.92;;;21.90;85.60;;;;;;5032862;28;20084;-14
2022/08/07 06:09:45;;;;;;;6.00;3.90;;;22.10;85.70;;;;;;5032863;28;20109;-13
2022/08/07 06:12:11;;;;;;;5.20;3.97;;;22.40;85.20;;;;;;5014944;28;20108;-15
2022/08/07 06:14:37;;;;;;;5.30;3.80;;;22.50;83.90;;;;;;5032447;28;20531;-14
2022/08/07 06:17:05;;;;;;;3.70;3.30;;;22.70;83.20;;;;;;5032971;28;20056;-15
2022/08/07 06:19:32;;;;;;;6.97;3.67;;;22.80;83.40;;;;;;5032751;28;20049;-14
2022/08/07 06:21:59;;;;;;;10.00;4.55;;;23.00;82.60;;;;;;5032731;28;20079;-14
2022/08/07 06:24:25;;;;;;;6.43;3.50;;;23.10;82.60;;;;;;5032438;28;20558;-16
2022/08/07 06:26:51;;;;;;;4.25;3.42;;;23.30;81.90;;;;;;5032627;28;20025;-15
2022/08/07 06:29:17;;;;;;;4.38;3.33;;;23.50;81.20;;;;;;5032756;28;20026;-15
2022/08/07 06:31:43;;;;;;;5.03;3.63;;;23.60;80.70;;;;;;5032702;28;20078;-15
2022/08/07 06:34:09;;;;;;;4.10;3.55;;;23.80;80.30;;;;;;5035703;28;20473;-15
2022/08/07 06:36:36;;;;;;;4.63;3.40;;;23.90;80.10;;;;;;5035804;28;20026;-14
2022/08/07 06:39:02;;;;;;;3.88;3.30;;;24.00;79.60;;;;;;5036061;28;20025;-14
2022/08/07 06:41:39;;;;;;;6.20;3.58;;;24.00;79.10;;;;;;5036161;28;20029;-13
2022/08/07 06:44:06;;;;;;;5.18;3.35;;;24.10;78.80;;;;;;5036182;28;20018;-13
2022/08/07 06:46:32;;;;;;;6.90;3.75;;;24.10;79.00;;;;;;5035709;28;20175;-14
2022/08/07 06:48:59;;;;;;;3.70;3.15;;;24.20;78.60;;;;;;5035965;28;20443;-16
2022/08/07 06:51:30;;;;;;;3.80;3.38;;;24.20;78.60;;;;;;5035534;28;20132;-13
2022/08/07 06:54:02;;;;;;;4.45;3.47;;;24.20;78.70;;;;;;5035785;28;20025;-13
2022/08/07 06:56:39;;;;;;;3.50;3.20;;;24.30;78.60;;;;;;5035690;28;20030;-15
2022/08/07 06:59:20;;;;;;;4.63;3.00;;;24.40;78.30;;;;;;5035526;28;20030;-15
2022/08/07 07:01:48;;;;;;;5.05;3.38;;;24.40;77.90;;;;;;5035774;28;20047;-16
2022/08/07 07:04:15;;;;;;;3.70;3.30;;;24.40;77.60;;;;;;5017358;28;20053;-16
2022/08/07 07:06:43;;;;;;;5.90;3.30;;;24.40;77.20;;;;;;5018013;28;20511;-16
2022/08/07 07:09:29;;;;;;;5.45;3.38;;;24.30;77.20;;;;;;5035291;28;20033;-14
2022/08/07 07:12:07;;;;;;;3.80;3.40;;;24.30;77.00;;;;;;5035558;28;20021;-14
2022/08/07 07:14:57;;;;;;;5.50;3.90;;;24.30;76.60;;;;;;5035371;28;20041;-14
2022/08/07 07:17:47;;;;;;;4.38;3.78;;;24.20;76.60;;;;;;5035163;28;20362;-14
2022/08/07 07:20:20;;;;;;;5.93;4.22;;;24.20;76.10;;;;;;5035077;28;20034;-14
2022/08/07 07:22:47;;;;;;;7.00;4.82;;;24.20;76.30;;;;;;5035420;28;20022;-14
2022/08/07 07:25:16;;;;;;;11.98;5.13;;;24.20;76.40;;;;;;5035067;28;20036;-16
2022/08/07 07:27:54;;;;;;;9.75;4.50;;;24.20;76.50;;;;;;5035076;28;20385;-15
2022/08/07 07:30:24;;;;;;;5.10;4.35;;;24.30;76.60;;;;;;5034734;28;20366;-14
2022/08/07 07:32:54;;;;;;;5.50;4.10;;;24.30;76.80;;;;;;5034891;28;20033;-13
2022/08/07 07:35:21;;;;;;;9.23;4.53;;;24.40;76.80;;;;;;5035087;28;20496;-14
2022/08/07 07:37:49;;;;;;;6.18;3.90;;;24.50;76.90;;;;;;5034763;28;20052;-15
2022/08/07 07:40:19;;;;;;;6.07;4.10;;;24.70;76.50;;;;;;5034925;28;20026;-14
2022/08/07 07:42:48;;;;;;;5.35;4.38;;;24.90;76.20;;;;;;5034555;28;20065;-15
2022/08/07 07:45:17;;;;;;;5.45;3.85;;;25.20;75.50;;;;;;5034917;28;20095;-13
2022/08/07 07:47:45;;;;;;;4.40;3.72;;;25.40;75.00;;;;;;5034783;28;20076;-14
2022/08/07 07:50:14;;;;;;;6.53;3.83;;;25.70;73.70;;;;;;5016924;28;20120;-14
2022/08/07 07:52:42;;;;;;;5.40;3.63;;;25.90;72.60;;;;;;5034789;28;20025;-14
2022/08/07 07:55:09;;;;;;;5.65;4.07;;;26.20;72.40;;;;;;5034649;28;20366;-16
2022/08/07 07:57:36;;;;;;;6.47;3.50;;;26.60;71.40;;;;;;5034563;28;20028;-15
2022/08/07 08:00:04;;;;;;;5.28;3.67;;;27.10;69.90;;;;;;5034328;28;20030;-14
2022/08/07 08:02:34;;;;;;;3.50;3.20;;;27.40;68.80;;;;;;5034033;28;20389;-14
2022/08/07 08:05:03;;;;;;;5.82;3.78;;;27.60;68.30;;;;;;5033908;28;20042;-15
2022/08/07 08:07:32;;;;;;;7.05;3.50;;;27.70;68.00;;;;;;5034122;28;20045;-14
2022/08/07 08:10:00;;;;;;;5.88;3.95;;;27.80;67.90;;;;;;5034250;28;20021;-14
2022/08/07 08:12:26;;;;;;;5.60;4.43;;;27.80;68.00;;;;;;5033956;28;20033;-16
2022/08/07 08:14:52;;;;;;;3.80;3.40;;;27.70;68.00;;;;;;5034061;28;20032;-15
2022/08/07 08:17:21;;;;;;;6.70;3.92;;;27.60;68.40;;;;;;5034016;28;20025;-16
2022/08/07 08:19:50;;;;;;;5.60;3.95;;;27.50;68.80;;;;;;5034152;28;20049;-16
2022/08/07 08:27:53;;;;;;;4.82;3.40;;;27.40;69.00;;;;;;5034038;28;20035;-16
2022/08/07 08:30:21;;;;;;;5.53;4.20;;;27.40;69.10;;;;;;5015906;28;20029;-15
2022/08/07 08:32:51;;;;;;;6.28;5.15;;;27.40;69.30;;;;;;5034374;28;20469;-16
2022/08/07 08:35:24;;;;;;;10.57;5.90;;;27.20;69.70;;;;;;5033637;28;20021;-16
2022/08/07 08:38:01;;;;;;;6.95;4.90;;;27.00;70.50;;;;;;5034827;28;20029;-16
2022/08/07 08:40:53;;;;;;;6.53;4.70;;;26.80;71.50;;;;;;5033810;28;20021;-14
2022/08/07 08:43:30;;;;;;;6.35;4.75;;;26.50;71.10;;;;;;5033879;28;20072;-15
2022/08/07 08:46:17;;;;;;;7.18;4.50;;;26.20;71.90;;;;;;5033930;28;20037;-14
2022/08/07 08:49:18;;;;;;;4.95;4.45;;;25.90;72.70;;;;;;5034194;28;20556;-15
2022/08/07 08:52:00;;;;;;;6.10;4.43;;;25.60;73.60;;;;;;5033642;28;20029;-16
2022/08/07 08:54:37;;;;;;;10.20;6.00;;;25.40;74.50;;;;;;5032941;28;20033;-15
2022/08/07 08:57:20;;;;;;;9.15;5.45;;;25.30;75.20;;;;;;5033424;28;20055;-15
2022/08/07 08:59:58;;;;;;;8.82;6.07;;;25.20;75.80;;;;;;5033708;28;20036;-15
2022/08/07 09:02:56;;;;;;;7.55;5.88;;;25.00;76.40;;;;;;5033093;28;20083;-15
2022/08/07 09:05:25;;;;;;;9.57;6.57;;;24.80;77.50;;;;;;5033183;28;20115;-15
2022/08/07 09:07:54;;;;;;;11.27;5.78;;;24.60;77.90;;;;;;5033163;28;20061;-15
2022/08/07 09:10:43;;;;;;;6.70;5.60;;;24.60;78.10;;;;;;5032985;28;20040;-14
2022/08/07 09:13:36;;;;;;;8.45;5.95;;;24.60;78.50;;;;;;5033475;28;20026;-14
2022/08/07 09:16:05;;;;;;;6.32;5.38;;;24.60;78.40;;;;;;5033172;28;20377;-14
2022/08/07 09:19:04;;;;;;;7.05;5.00;;;24.70;78.00;;;;;;5033643;28;20080;-15
2022/08/07 09:21:30;;;;;;;5.93;5.07;;;24.70;77.70;;;;;;5033346;28;20083;-14
2022/08/07 09:23:59;;;;;;;6.70;4.53;;;24.90;77.30;;;;;;5033228;28;20124;-15
2022/08/07 09:26:45;;;;;;;6.82;4.72;;;24.90;77.10;;;;;;5033100;28;20171;-16
2022/08/07 09:29:41;;;;;;;6.22;4.80;;;25.20;76.70;;;;;;5033380;28;20033;-14
2022/08/07 09:32:19;;;;;;;7.43;4.57;;;25.40;76.10;;;;;;5032984;28;20485;-15
2022/08/07 09:35:11;;;;;;;6.32;4.30;;;25.60;75.10;;;;;;5033460;28;20072;-14
2022/08/07 09:37:50;;;;;;;5.28;4.20;;;25.70;73.00;;;;;;5032927;28;20041;-15
2022/08/07 09:40:27;;;;;;;4.82;3.95;;;25.70;73.20;;;;;;5032508;28;20497;-14
2022/08/07 09:42:56;;;;;;;4.00;3.60;;;25.70;73.10;;;;;;5032856;28;20026;-15
2022/08/07 09:45:51;;;;;;;5.13;3.25;;;25.80;73.00;;;;;;5032997;28;20108;-14
2022/08/07 09:48:38;;;;;;;5.18;3.88;;;25.80;71.20;;;;;;5032572;28;20025;-15
2022/08/07 09:51:41;;;;;;;4.57;3.72;;;25.70;71.30;;;;;;5032931;28;20030;-14
2022/08/07 09:54:14;;;;;;;5.70;4.05;;;25.70;71.60;;;;;;5032728;28;20036;-14
2022/08/07 09:57:08;;;;;;;7.65;3.47;;;25.60;71.60;;;;;;5032697;28;20074;-14
2022/08/07 10:00:07;;;;;;;4.82;4.30;;;25.60;71.70;;;;;;5033642;28;20504;-15
2022/08/07 10:03:06;;;;;;;4.50;3.92;;;25.50;72.00;;;;;;5032769;28;20543;-15
2022/08/07 10:05:51;;;;;;;7.07;4.93;;;25.50;71.70;;;;;;5032379;28;20459;-15
2022/08/07 10:08:35;;;;;;;6.05;4.22;;;25.40;71.30;;;;;;5036148;28;20030;-15
2022/08/07 10:11:26;;;;;;;6.57;3.95;;;25.40;71.50;;;;;;5036771;28;20033;-14
2022/08/07 10:14:25;;;;;;;5.45;4.22;;;25.20;71.70;;;;;;5036555;28;20034;-15
2022/08/07 10:17:21;;;;;;;5.93;4.28;;;25.10;72.00;;;;;;5036392;28;20032;-15
2022/08/07 10:20:31;;;;;;;4.40;4.00;;;25.10;72.30;;;;;;5036365;28;20431;-16
2022/08/07 10:23:17;;;;;;;6.00;4.47;;;25.00;72.40;;;;;;4956216;29;20023;-14
2022/08/07 10:26:04;;;;;;;6.55;4.97;;;24.90;73.00;;;;;;5036033;28;20033;-15
2022/08/07 10:28:40;;;;;;;6.68;5.25;;;24.80;73.20;;;;;;5035928;28;20090;-14
2022/08/07 10:31:16;;;;;;;7.82;5.80;;;24.70;73.80;;;;;;5036345;28;20113;-15
2022/08/07 10:34:04;;;;;;;6.35;5.20;;;24.60;74.00;;;;;;5036375;28;20022;-15
2022/08/07 10:36:42;;;;;;;7.45;5.55;;;24.40;74.30;;;;;;5036039;28;20073;-16
2022/08/07 10:39:16;;;;;;;8.35;6.03;;;24.40;74.60;;;;;;5036276;28;20022;-16
2022/08/07 10:41:51;;;;;;;6.20;5.25;;;24.20;75.30;;;;;;5035923;28;20037;-16
2022/08/07 10:44:46;;;;;;;5.70;4.80;;;24.10;76.00;;;;;;5035769;28;20026;-14
2022/08/07 10:47:36;;;;;;;7.15;4.45;;;24.00;76.50;;;;;;5035935;28;20035;-14
2022/08/07 10:50:18;;;;;;;6.72;4.13;;;23.90;76.90;;;;;;5035900;28;20028;-16
2022/08/07 10:53:16;;;;;;;6.80;5.20;;;23.70;77.00;;;;;;5035978;28;20080;-16
2022/08/07 10:55:54;;;;;;;7.13;4.55;;;23.60;77.10;;;;;;5035945;28;20024;-15
2022/08/07 10:59:05;;;;;;;5.53;4.20;;;23.50;77.40;;;;;;5035314;28;20040;-15
2022/08/07 11:01:44;;;;;;;3.70;3.30;;;23.40;77.50;;;;;;5035379;28;20119;-15
2022/08/07 11:04:19;;;;;;;3.83;3.42;;;23.40;77.40;;;;;;5035430;28;20045;-16
2022/08/07 11:07:26;;;;;;;5.60;3.90;;;23.40;77.60;;;;;;5035747;28;20034;-16
2022/08/07 11:09:57;;;;;;;5.13;4.30;;;23.30;78.10;;;;;;4955196;29;20463;-16
2022/08/07 11:12:33;;;;;;;4.55;3.72;;;23.30;78.10;;;;;;5025004;28;20040;-14
2022/08/07 11:15:15;;;;;;;8.90;3.85;;;23.20;78.30;;;;;;5035256;28;20018;-14
2022/08/07 11:17:45;;;;;;;5.95;3.60;;;23.30;78.40;;;;;;5034646;28;20393;-15
2022/08/07 11:20:23;;;;;;;3.78;3.38;;;23.40;78.20;;;;;;5034850;28;20539;-14
2022/08/07 11:23:19;;;;;;;5.13;3.80;;;23.40;78.00;;;;;;5035129;28;20028;-15
2022/08/07 11:25:50;;;;;;;5.18;4.32;;;23.60;77.80;;;;;;4998602;28;20038;-16
2022/08/07 11:28:22;;;;;;;6.18;4.40;;;23.70;77.60;;;;;;5035027;28;20042;-15
2022/08/07 11:30:57;;;;;;;6.05;4.53;;;23.80;77.40;;;;;;5035423;28;20037;-15
2022/08/07 11:33:40;;;;;;;4.00;3.60;;;23.90;77.10;;;;;;5035235;28;20029;-14
2022/08/07 11:36:12;;;;;;;8.13;4.57;;;23.90;76.90;;;;;;5035062;28;20092;-15
2022/08/07 11:39:01;;;;;;;4.43;3.90;;;23.90;76.80;;;;;;5034608;28;20030;-16
2022/08/07 11:41:37;;;;;;;4.78;3.70;;;24.10;76.80;;;;;;5035018;28;20026;-16
2022/08/07 11:44:29;;;;;;;8.38;4.35;;;24.20;76.50;;;;;;5016981;28;20053;-16
2022/08/07 11:47:07;;;;;;;7.22;5.10;;;24.30;76.40;;;;;;5034837;28;20025;-14
2022/08/07 11:49:55;;;;;;;7.68;4.80;;;24.60;76.30;;;;;;5034641;28;20078;-16
2022/08/07 11:52:52;;;;;;;6.13;4.70;;;24.70;76.10;;;;;;5034706;28;20032;-15
2022/08/07 11:56:02;;;;;;;9.00;5.65;;;24.70;76.30;;;;;;5034869;28;20484;-15
2022/08/07 11:58:48;;;;;;;8.13;5.32;;;24.70;76.70;;;;;;5034237;28;20504;-15
2022/08/07 12:01:37;;;;;;;5.82;5.05;;;24.70;77.10;;;;;;5034665;28;20033;-15
2022/08/07 12:04:24;;;;;;;6.65;5.60;;;24.60;77.00;;;;;;5034134;28;20069;-14
2022/08/07 12:07:14;;;;;;;6.68;5.40;;;24.60;77.10;;;;;;5034531;28;20427;-15
2022/08/07 12:09:58;;;;;;;7.00;5.65;;;24.50;77.40;;;;;;5020217;28;20033;-16
2022/08/07 12:12:32;;;;;;;8.75;5.95;;;24.60;77.60;;;;;;5034193;28;20100;-14
2022/08/07 12:15:10;;;;;;;6.80;5.30;;;24.60;77.40;;;;;;5034141;28;20018;-17
2022/08/07 12:18:25;;;;;;;6.65;5.18;;;24.50;77.30;;;;;;5034413;28;20033;-15
2022/08/07 12:21:36;;;;;;;6.80;4.97;;;24.60;77.50;;;;;;5012521;28;20028;-16
2022/08/07 12:24:20;;;;;;;7.28;5.63;;;24.70;77.80;;;;;;5034385;28;20369;-14
2022/08/07 12:27:17;;;;;;;5.50;4.65;;;24.90;77.30;;;;;;5034038;28;20024;-15
2022/08/07 12:30:05;;;;;;;8.40;5.47;;;25.00;77.00;;;;;;4953750;28;20051;-15
2022/08/07 12:32:51;;;;;;;7.13;5.65;;;25.10;76.60;;;;;;4950700;29;20027;-16
2022/08/07 12:35:20;;;;;;;7.82;5.35;;;25.20;76.30;;;;;;4953645;29;20103;-15
2022/08/07 12:37:48;;;;;;;5.95;4.47;;;25.30;76.10;;;;;;4953631;29;20023;-15
2022/08/07 12:40:21;;;;;;;5.13;4.30;;;25.40;76.00;;;;;;4953498;29;20039;-20
2022/08/07 12:42:52;;;;;;;5.32;4.40;;;25.60;76.00;;;;;;4953553;29;20037;-15
2022/08/07 12:45:26;;;;;;;5.45;4.15;;;25.80;75.50;;;;;;4953544;29;20055;-15
2022/08/07 12:48:20;;;;;;;5.45;4.45;;;26.00;74.50;;;;;;4953644;29;20043;-14
2022/08/07 12:51:00;;;;;;;6.05;4.90;;;26.10;74.10;;;;;;4953349;29;20024;-15
2022/08/07 12:53:36;;;;;;;6.32;4.38;;;26.20;73.30;;;;;;4953457;29;20491;-14
2022/08/07 12:56:30;;;;;;;5.90;3.80;;;26.30;73.00;;;;;;4953388;29;20101;-13
2022/08/07 12:58:59;;;;;;;6.47;4.82;;;26.40;73.20;;;;;;4946791;29;20070;-16
2022/08/07 13:01:26;;;;;;;6.72;4.75;;;26.50;72.90;;;;;;4953260;29;20244;-14
2022/08/07 13:04:22;;;;;;;5.85;4.50;;;26.60;72.50;;;;;;4952977;29;20126;-14
2022/08/07 13:07:23;;;;;;;5.07;3.88;;;26.80;72.10;;;;;;5018150;28;20040;-14
2022/08/07 13:09:54;;;;;;;5.00;4.20;;;26.90;71.60;;;;;;4953058;29;20400;-16
2022/08/07 13:12:41;;;;;;;6.43;4.65;;;27.00;71.00;;;;;;5019393;28;20087;-14
2022/08/07 13:15:34;;;;;;;6.55;4.47;;;27.10;70.60;;;;;;5033156;28;20026;-15
2022/08/07 13:18:31;;;;;;;6.40;4.50;;;27.30;69.60;;;;;;5033420;28;20066;-16
2022/08/07 13:21:18;;;;;;;5.05;4.38;;;27.40;69.10;;;;;;5033340;28;20038;-14
2022/08/07 13:24:12;;;;;;;5.20;4.28;;;27.60;68.10;;;;;;5033350;28;20586;-15
2022/08/07 13:26:40;;;;;;;4.85;4.32;;;27.90;68.10;;;;;;5015255;28;20033;-15
2022/08/07 13:29:47;;;;;;;6.03;4.50;;;28.20;67.40;;;;;;5033572;28;20029;-14